Atlantic City, New Jersey
Current Conditions -  °F | °C
As of 10:54 AM on Thursday 18 Dec 2014 (Local Time) from KACY Reporting Station
Clear Clear  
Wind Chill: 30°   Ceiling: Unl
Heat Index: 40°   Visibility: 10mi
Dew Point: 22°   Wind: 20mph
Humidity: 49%   Direction: 300°WNW
Pressure: 30.05"   Gusts: 29mph
Location:  39.36°N, 74.43°W
Report Text: KACY 181554Z 30017G25KT 10SM CLR 04/M06 A3005 RMK AO2 PK WND 30028/1511 SLP177 T00441056
Loading
Personal Weather Stations






























Interactive Weather Map New forecast layout! Learn more

10-Day Weather Forecast

Advertisements
Track Severe Weather on mobile